Terminal Aerodrome Forecast
Issued by NWS

Home | Current Version | Previous Version | Text Only | Print | Product List | Glossary On
Versions: 1 2 3 4 5 6 7 8 9 10 11 12 13 14 15 16 17
706
FTUS45 KRIW 212333
TAFCPR
TAF
KCPR 212333Z 2200/2224 VRB10G16KT P6SM VCTS SCT050CB BKN120
     FM220300 08007KT P6SM SCT100
     FM221000 VRB04KT P6SM SCT110
     FM222100 VRB12G18KT 5SM TSRA BKN050CB=

USA.gov is the U.S. government's official web portal to all federal, state and local government web resources and services.